Time;durP1;ratioP1;P1;durP2;ratioP2;P2;SDS_P1;SDS_P2;PMS_P1;PMS_P2;Temp;Humidity;BMP_temperature;BMP_pressure;BME280_temperature;BME280_humidity;BME280_pressure;Samples;Min_cycle;Max_cycle;Signal;HPM_P1;HPM_P2
2024/01/05 08:51:10;;;;;;;9.80;5.00;;;;;;;-0.04;77.25;98412.53;106212;1303;544971;-35
2024/01/05 08:53:35;;;;;;;9.00;4.40;;;;;;;-0.05;76.63;98412.38;107518;1311;22238;-38
2024/01/05 08:56:01;;;;;;;11.10;5.10;;;;;;;-0.02;77.06;98410.77;107531;1311;22424;-35
2024/01/05 08:58:27;;;;;;;14.60;6.40;;;;;;;0.01;77.30;98413.96;107725;1309;22844;-37
2024/01/05 09:00:52;;;;;;;18.40;7.00;;;;;;;0.00;76.12;98423.30;107722;1309;22264;-35
2024/01/05 09:03:17;;;;;;;25.60;9.50;;;;;;;0.03;76.97;98419.06;107710;1309;23105;-36
2024/01/05 09:05:42;;;;;;;16.80;6.60;;;;;;;0.09;75.89;98423.40;107841;1289;181153;-35
2024/01/05 09:08:08;;;;;;;20.60;8.80;;;;;;;0.16;76.23;98424.40;108005;1307;22348;-35
2024/01/05 09:10:33;;;;;;;15.60;7.50;;;;;;;0.19;75.37;98427.09;106962;1285;22581;-36
2024/01/05 09:13:00;;;;;;;23.50;8.50;;;;;;;0.25;75.88;98437.27;107249;1289;22277;-35
2024/01/05 09:15:25;;;;;;;22.50;8.70;;;;;;;0.30;75.40;98438.35;107804;1308;22376;-38
2024/01/05 09:17:51;;;;;;;18.80;9.50;;;;;;;0.34;76.22;98434.77;107788;1292;22298;-37
2024/01/05 09:20:16;;;;;;;23.40;10.30;;;;;;;0.41;76.39;98442.88;107814;1289;22452;-39
2024/01/05 09:22:42;;;;;;;25.00;10.10;;;;;;;0.41;74.63;98438.38;107793;1308;22800;-36
2024/01/05 09:25:08;;;;;;;25.30;10.50;;;;;;;0.37;73.61;98443.14;107828;1289;22243;-38
2024/01/05 09:27:33;;;;;;;19.50;9.20;;;;;;;0.41;74.85;98446.49;107826;1289;22285;-36
2024/01/05 09:29:59;;;;;;;20.20;8.90;;;;;;;0.43;75.15;98442.11;107767;1289;23387;-37
2024/01/05 09:32:24;;;;;;;17.50;8.60;;;;;;;0.44;75.46;98444.66;107802;1308;22354;-44
2024/01/05 09:34:50;;;;;;;21.00;11.40;;;;;;;0.48;75.20;98446.30;107832;1308;22279;-37
2024/01/05 09:37:15;;;;;;;18.60;9.40;;;;;;;0.50;75.01;98444.84;107811;1308;22467;-37
2024/01/05 09:39:40;;;;;;;21.10;9.60;;;;;;;0.54;75.16;98439.91;107826;1308;23940;-37
2024/01/05 09:42:06;;;;;;;19.40;8.70;;;;;;;0.48;73.15;98437.30;107859;1289;22475;-37
2024/01/05 09:44:32;;;;;;;15.90;8.00;;;;;;;0.49;73.24;98446.77;107810;1294;22426;-38
2024/01/05 09:46:58;;;;;;;14.70;7.70;;;;;;;0.52;73.42;98450.14;107826;1289;22290;-39
2024/01/05 09:53:13;;;;;;;17.40;6.60;;;;;;;0.53;71.88;98449.43;107829;1308;22425;-37
2024/01/05 09:55:39;;;;;;;22.00;8.10;;;;;;;0.53;72.81;98449.58;107824;1307;22254;-39
2024/01/05 09:58:05;;;;;;;19.80;8.00;;;;;;;0.54;73.12;98459.58;107797;1285;22799;-38
2024/01/05 10:00:31;;;;;;;16.60;7.70;;;;;;;0.57;73.46;98466.06;107833;1286;22968;-37
2024/01/05 10:03:02;;;;;;;18.00;7.80;;;;;;;0.58;72.82;98462.40;107793;1290;22236;-38
2024/01/05 10:05:30;;;;;;;17.70;7.50;;;;;;;0.60;72.96;98465.98;107807;1308;22264;-38
2024/01/05 10:07:56;;;;;;;21.20;8.60;;;;;;;0.61;72.73;98462.98;107817;1286;23176;-36
2024/01/05 10:10:52;;;;;;;16.80;8.00;;;;;;;0.65;72.69;98449.10;107828;1308;22244;-37
2024/01/05 10:13:18;;;;;;;18.70;9.00;;;;;;;0.66;72.39;98444.92;107837;1308;22411;-38
2024/01/05 10:15:54;;;;;;;21.50;7.50;;;;;;;0.68;71.85;98448.33;107804;1308;22410;-38
2024/01/05 10:18:20;;;;;;;14.90;6.90;;;;;;;0.69;71.32;98436.20;107807;1308;22245;-38
2024/01/05 10:20:45;;;;;;;22.30;9.70;;;;;;;0.71;71.27;98437.52;107787;1289;22406;-38
2024/01/05 10:23:11;;;;;;;22.80;11.00;;;;;;;0.69;72.14;98441.36;107817;1308;22393;-37
2024/01/05 10:25:37;;;;;;;23.60;10.90;;;;;;;0.71;72.67;98437.19;107801;1291;22344;-38
2024/01/05 10:28:19;;;;;;;21.10;8.00;;;;;;;0.71;71.95;98442.18;107799;1308;22235;-39
2024/01/05 10:30:45;;;;;;;11.90;6.40;;;;;;;0.72;71.61;98444.92;107814;1308;22248;-37
2024/01/05 10:33:11;;;;;;;16.50;7.10;;;;;;;0.75;71.74;98436.05;107824;1291;22253;-36
2024/01/05 10:35:36;;;;;;;15.50;7.60;;;;;;;0.73;69.95;98427.98;107840;1308;22555;-37
2024/01/05 10:38:08;;;;;;;22.00;7.30;;;;;;;0.71;71.27;98420.96;107807;1290;22420;-38
2024/01/05 10:40:33;;;;;;;22.00;8.40;;;;;;;0.73;71.31;98424.88;107773;1298;23055;-37
2024/01/05 10:43:15;;;;;;;24.60;9.90;;;;;;;0.72;71.15;98424.89;107868;1292;22286;-38
2024/01/05 10:45:41;;;;;;;20.60;7.90;;;;;;;0.73;71.40;98434.01;107912;1289;22290;-38
2024/01/05 10:48:13;;;;;;;19.50;10.00;;;;;;;0.75;70.59;98432.39;107802;1308;23206;-38
2024/01/05 10:50:41;;;;;;;18.20;8.00;;;;;;;0.77;70.23;98438.91;107887;1308;23071;-38
2024/01/05 10:53:10;;;;;;;14.20;6.30;;;;;;;0.79;71.05;98441.78;107859;1301;22262;-38
2024/01/05 10:55:39;;;;;;;16.10;6.40;;;;;;;0.78;70.55;98434.56;107855;1301;22261;-36
2024/01/05 10:58:07;;;;;;;12.90;5.20;;;;;;;0.78;70.07;98431.30;107875;1308;22482;-38
2024/01/05 11:00:32;;;;;;;10.20;4.90;;;;;;;0.75;69.48;98424.81;107823;1289;23283;-39
2024/01/05 11:03:18;;;;;;;12.80;4.80;;;;;;;0.74;68.89;98422.60;107799;1291;22234;-38
2024/01/05 11:05:46;;;;;;;11.40;5.20;;;;;;;0.73;68.77;98426.42;107786;1308;22238;-36
2024/01/05 11:08:54;;;;;;;7.90;3.50;;;;;;;0.77;68.85;98431.68;107817;1290;23033;-36
2024/01/05 11:11:51;;;;;;;10.20;5.00;;;;;;;0.78;68.21;98437.52;107818;1292;22255;-38
2024/01/05 11:14:22;;;;;;;11.40;5.50;;;;;;;0.79;68.26;98432.66;107497;1308;22270;-38
2024/01/05 11:17:24;;;;;;;10.00;5.00;;;;;;;0.79;68.59;98427.98;107792;1292;22251;-38
2024/01/05 11:20:19;;;;;;;8.50;5.30;;;;;;;0.80;68.66;98423.65;107817;1290;22266;-38
2024/01/05 11:22:48;;;;;;;13.90;6.30;;;;;;;0.79;68.78;98429.56;107808;1285;22245;-39
2024/01/05 11:25:15;;;;;;;17.40;7.30;;;;;;;0.81;69.01;98433.27;107793;1308;22985;-39
2024/01/05 11:27:47;;;;;;;13.20;5.60;;;;;;;0.82;69.05;98439.11;107838;1288;22395;-37
2024/01/05 11:30:13;;;;;;;12.30;5.30;;;;;;;0.81;68.49;98437.59;107803;1290;22236;-39
2024/01/05 11:32:42;;;;;;;8.10;4.70;;;;;;;0.80;68.64;98432.27;107833;1292;22274;-40
2024/01/05 11:35:16;;;;;;;9.20;5.10;;;;;;;0.82;68.53;98426.34;107822;1302;22275;-38
2024/01/05 11:37:45;;;;;;;11.70;5.40;;;;;;;0.84;69.40;98430.95;107809;1288;22445;-39
2024/01/05 11:40:25;;;;;;;11.00;5.10;;;;;;;0.87;68.76;98429.98;107804;1285;22281;-39
2024/01/05 11:42:51;;;;;;;13.50;6.80;;;;;;;0.90;68.70;98423.16;107807;1292;22327;-39
2024/01/05 11:45:49;;;;;;;16.20;6.40;;;;;;;0.89;68.50;98429.41;107810;1291;23181;-40
2024/01/05 11:48:33;;;;;;;12.30;6.00;;;;;;;0.89;68.11;98428.88;107801;1308;22399;-37
2024/01/05 11:51:19;;;;;;;19.10;9.70;;;;;;;0.88;67.17;98427.20;107785;1308;22261;-36
2024/01/05 11:53:44;;;;;;;17.50;8.10;;;;;;;0.87;67.64;98431.19;107789;1308;23402;-38
2024/01/05 11:56:11;;;;;;;14.30;7.30;;;;;;;0.87;67.26;98437.75;107811;1289;23094;-36
2024/01/05 11:58:41;;;;;;;24.30;13.60;;;;;;;0.79;65.91;98435.39;107815;1308;22252;-37
2024/01/05 12:01:11;;;;;;;28.00;14.60;;;;;;;0.82;67.90;98436.70;107772;1308;22244;-38
2024/01/05 12:03:38;;;;;;;32.20;15.80;;;;;;;0.82;68.47;98435.15;107810;1308;22248;-39
2024/01/05 12:06:04;;;;;;;21.40;11.40;;;;;;;0.84;69.41;98432.48;107829;1285;22959;-39
2024/01/05 12:08:30;;;;;;;22.40;10.50;;;;;;;0.86;68.75;98424.16;107884;1308;22249;-37
2024/01/05 12:11:02;;;;;;;24.80;10.60;;;;;;;0.85;68.48;98419.71;107915;1286;22238;-38
2024/01/05 12:13:29;;;;;;;20.30;9.00;;;;;;;0.87;69.58;98415.85;107888;1308;23158;-37
2024/01/05 12:15:55;;;;;;;16.00;9.10;;;;;;;0.90;69.58;98413.15;107818;1308;22264;-38
2024/01/05 12:18:27;;;;;;;54.90;26.20;;;;;;;0.91;68.43;98406.39;107813;1308;22314;-37
2024/01/05 12:20:56;;;;;;;17.40;9.30;;;;;;;0.92;69.76;98403.61;107805;1286;23181;-38
2024/01/05 12:23:22;;;;;;;10.00;6.50;;;;;;;0.92;69.32;98406.89;107824;1289;22248;-39
2024/01/05 12:26:04;;;;;;;16.80;8.40;;;;;;;0.92;68.24;98405.33;107824;1308;22305;-37
2024/01/05 12:28:34;;;;;;;11.30;6.10;;;;;;;0.88;66.10;98395.11;107816;1290;22217;-38
2024/01/05 12:31:02;;;;;;;10.10;5.20;;;;;;;0.90;66.95;98386.75;107855;1288;22398;-37
2024/01/05 12:33:28;;;;;;;18.30;8.70;;;;;;;0.89;66.88;98387.48;107841;1286;22425;-39
2024/01/05 12:35:54;;;;;;;15.30;7.00;;;;;;;0.89;67.16;98391.28;107819;1292;22251;-37
2024/01/05 12:38:26;;;;;;;21.00;9.20;;;;;;;0.90;68.55;98387.28;107824;1308;22278;-37
2024/01/05 12:41:03;;;;;;;23.80;9.60;;;;;;;0.95;71.53;98393.84;107866;1289;22281;-37
2024/01/05 12:43:29;;;;;;;15.30;8.70;;;;;;;0.99;72.31;98396.13;107846;1298;22244;-39
2024/01/05 12:45:54;;;;;;;25.50;9.60;;;;;;;1.02;72.80;98398.14;107828;1288;22290;-37
2024/01/05 12:48:26;;;;;;;20.10;8.60;;;;;;;1.04;73.35;98407.04;107826;1308;23536;-37
2024/01/05 12:51:02;;;;;;;21.10;8.90;;;;;;;1.01;73.55;98410.92;107835;1308;22426;-37
2024/01/05 12:53:28;;;;;;;14.80;7.40;;;;;;;0.99;73.56;98412.38;107729;1308;22689;-36
2024/01/05 12:55:53;;;;;;;10.90;5.80;;;;;;;1.00;74.69;98412.16;107828;1290;22443;-37
2024/01/05 12:58:18;;;;;;;14.60;6.70;;;;;;;0.97;73.22;98406.92;107839;1301;22711;-37
2024/01/05 13:00:44;;;;;;;12.20;7.50;;;;;;;0.93;73.29;98407.20;107937;1307;23684;-39
2024/01/05 13:03:16;;;;;;;13.90;6.80;;;;;;;0.93;73.97;98413.91;107842;1305;22240;-37
2024/01/05 13:05:42;;;;;;;11.50;6.00;;;;;;;0.89;73.85;98419.75;107814;1308;23647;-38
2024/01/05 13:08:09;;;;;;;16.60;7.90;;;;;;;0.85;73.94;98422.47;107849;1286;22242;-37
2024/01/05 13:10:34;;;;;;;17.90;9.10;;;;;;;0.81;74.41;98425.16;107828;1288;22318;-39
2024/01/05 13:13:00;;;;;;;17.90;9.00;;;;;;;0.81;73.64;98429.49;107827;1286;22208;-37
2024/01/05 13:15:25;;;;;;;28.50;13.80;;;;;;;0.75;73.08;98426.54;107818;1291;22766;-39
2024/01/05 13:17:51;;;;;;;20.80;9.30;;;;;;;0.71;73.03;98424.94;107829;1288;22317;-39
2024/01/05 13:20:27;;;;;;;18.30;9.50;;;;;;;0.70;73.57;98420.48;107813;1288;23050;-37
2024/01/05 13:22:55;;;;;;;20.00;9.50;;;;;;;0.64;74.00;98415.14;107816;1289;22267;-40
2024/01/05 13:25:21;;;;;;;20.20;9.80;;;;;;;0.66;75.20;98409.02;107837;1289;22472;-36
2024/01/05 13:27:47;;;;;;;34.60;15.90;;;;;;;0.68;75.42;98407.09;107701;1304;22451;-38
2024/01/05 13:30:13;;;;;;;21.80;10.70;;;;;;;0.67;76.10;98401.08;107904;1289;23649;-38
2024/01/05 13:32:42;;;;;;;11.70;6.90;;;;;;;0.69;77.25;98390.48;107864;1298;22361;-36
2024/01/05 13:35:08;;;;;;;38.20;18.40;;;;;;;0.70;77.43;98388.55;107882;1292;22908;-38
2024/01/05 13:37:33;;;;;;;11.70;6.50;;;;;;;0.75;76.72;98386.70;107853;1292;22410;-36
2024/01/05 13:40:00;;;;;;;16.30;8.40;;;;;;;0.79;77.17;98388.84;107820;1289;22273;-37
2024/01/05 13:42:28;;;;;;;13.70;7.80;;;;;;;0.81;76.59;98381.69;107838;1285;22888;-42
2024/01/05 13:44:53;;;;;;;22.80;10.40;;;;;;;0.83;75.96;98376.10;107813;1291;22260;-37
2024/01/05 13:47:19;;;;;;;14.10;8.30;;;;;;;0.85;76.30;98378.30;107831;1292;23243;-38
2024/01/05 13:49:44;;;;;;;15.80;8.90;;;;;;;0.88;77.15;98382.50;107802;1289;23314;-37
2024/01/05 13:52:09;;;;;;;22.70;11.10;;;;;;;0.87;77.58;98377.19;107850;1308;22455;-37
2024/01/05 13:54:35;;;;;;;15.20;9.60;;;;;;;0.86;78.06;98373.95;107864;1307;23167;-39
2024/01/05 13:57:03;;;;;;;20.00;10.80;;;;;;;0.82;77.63;98373.71;107991;1287;22464;-39
2024/01/05 13:59:29;;;;;;;17.60;10.30;;;;;;;0.77;77.69;98379.71;107984;1289;22377;-37
2024/01/05 14:01:54;;;;;;;18.30;9.10;;;;;;;0.74;77.64;98379.45;107931;1289;23210;-39
2024/01/05 14:04:20;;;;;;;21.90;9.10;;;;;;;0.71;77.83;98379.73;107980;1291;22197;-36
2024/01/05 14:06:45;;;;;;;18.30;9.30;;;;;;;0.70;78.24;98373.04;107833;1289;22334;-39
2024/01/05 14:09:10;;;;;;;16.90;8.60;;;;;;;0.65;78.36;98374.73;107820;1297;23068;-38
2024/01/05 14:11:36;;;;;;;20.40;10.00;;;;;;;0.58;78.98;98375.46;107690;1289;22482;-38
2024/01/05 14:14:01;;;;;;;21.40;11.60;;;;;;;0.57;79.13;98378.25;107812;1308;22279;-38
2024/01/05 14:16:26;;;;;;;24.60;11.30;;;;;;;0.53;79.46;98385.25;107842;1289;22411;-39
2024/01/05 14:18:52;;;;;;;23.10;12.50;;;;;;;0.50;79.60;98370.00;107785;1298;23010;-39
2024/01/05 14:21:26;;;;;;;28.70;14.60;;;;;;;0.48;80.08;98361.95;107915;1286;22465;-38
2024/01/05 14:23:52;;;;;;;29.10;17.40;;;;;;;0.43;79.83;98372.62;107931;1286;22216;-39
2024/01/05 14:26:18;;;;;;;25.30;13.30;;;;;;;0.39;79.96;98377.73;107956;1289;22248;-39
2024/01/05 14:28:44;;;;;;;23.90;11.90;;;;;;;0.39;79.63;98383.95;107930;1307;22395;-39
2024/01/05 14:31:10;;;;;;;19.40;10.60;;;;;;;0.32;79.76;98381.22;107943;1307;22380;-37
2024/01/05 14:33:35;;;;;;;16.60;9.90;;;;;;;0.29;80.17;98380.78;107934;1307;23206;-39
2024/01/05 14:36:04;;;;;;;19.40;10.70;;;;;;;0.29;80.31;98382.86;107843;1291;22605;-37
2024/01/05 14:38:30;;;;;;;20.20;10.90;;;;;;;0.30;80.01;98381.08;107921;1307;22227;-39
2024/01/05 14:40:55;;;;;;;17.90;9.70;;;;;;;0.29;79.89;98376.30;107813;1307;22989;-38
2024/01/05 14:43:20;;;;;;;16.30;7.80;;;;;;;0.29;79.60;98370.59;107781;1289;22423;-37
2024/01/05 14:45:45;;;;;;;15.60;7.70;;;;;;;0.32;80.06;98364.66;107807;1300;22391;-36
2024/01/05 14:48:11;;;;;;;12.90;6.10;;;;;;;0.26;79.23;98358.28;107645;1307;23226;-37
2024/01/05 14:50:37;;;;;;;10.50;5.60;;;;;;;0.28;79.69;98356.67;107947;1293;22212;-36
2024/01/05 14:53:02;;;;;;;11.50;6.20;;;;;;;0.25;80.04;98371.40;107929;1289;23144;-36
2024/01/05 14:55:27;;;;;;;9.40;5.50;;;;;;;0.27;80.20;98377.03;107930;1305;22321;-37
2024/01/05 14:57:53;;;;;;;9.70;5.90;;;;;;;0.31;80.00;98381.41;107893;1291;23169;-36
2024/01/05 15:00:20;;;;;;;14.90;7.60;;;;;;;0.27;80.00;98387.55;107906;1308;22242;-36
2024/01/05 15:02:45;;;;;;;13.60;7.90;;;;;;;0.31;80.54;98385.55;107785;1307;22977;-38
2024/01/05 15:05:11;;;;;;;17.70;9.70;;;;;;;0.30;79.97;98393.34;107666;1307;22460;-38
2024/01/05 15:07:37;;;;;;;12.50;6.70;;;;;;;0.27;79.49;98390.34;107941;1291;22521;-36
2024/01/05 15:10:02;;;;;;;12.60;6.90;;;;;;;0.18;78.79;98393.16;107910;1291;22967;-37
2024/01/05 15:12:28;;;;;;;13.60;6.50;;;;;;;0.15;78.76;98384.11;107949;1286;22236;-38
2024/01/05 15:14:53;;;;;;;10.10;6.10;;;;;;;0.17;79.52;98374.73;107911;1289;23603;-38
2024/01/05 15:17:19;;;;;;;10.50;6.40;;;;;;;0.15;79.32;98368.60;107696;1305;22471;-37
2024/01/05 15:19:44;;;;;;;14.70;6.60;;;;;;;0.12;79.61;98374.02;107845;1307;23303;-39
2024/01/05 15:22:10;;;;;;;10.90;7.00;;;;;;;0.11;79.87;98377.15;107941;1289;22239;-42
2024/01/05 15:24:45;;;;;;;12.90;7.10;;;;;;;0.07;80.00;98372.95;107796;1292;22367;-36
2024/01/05 15:27:11;;;;;;;13.80;7.60;;;;;;;0.04;80.64;98365.45;107804;1300;23140;-39
2024/01/05 15:29:39;;;;;;;11.10;6.40;;;;;;;0.02;80.66;98365.52;107777;1292;22445;-37
2024/01/05 15:32:04;;;;;;;14.60;7.80;;;;;;;0.01;81.53;98364.31;107785;1308;22217;-37
2024/01/05 15:34:29;;;;;;;19.20;9.50;;;;;;;-0.01;81.66;98368.00;107790;1308;22324;-38
2024/01/05 15:36:55;;;;;;;22.30;10.40;;;;;;;-0.01;81.75;98369.54;107794;1289;22212;-39
2024/01/05 15:39:20;;;;;;;15.70;9.30;;;;;;;-0.01;82.05;98366.09;107815;1289;22978;-36
2024/01/05 15:41:45;;;;;;;12.90;7.60;;;;;;;-0.01;81.68;98360.58;107803;1308;22676;-37
2024/01/05 15:44:10;;;;;;;15.30;9.00;;;;;;;0.03;82.56;98359.45;107782;1289;22272;-42
2024/01/05 15:46:36;;;;;;;18.80;9.20;;;;;;;0.05;82.30;98361.98;107792;1308;22432;-35
2024/01/05 15:49:01;;;;;;;15.90;9.20;;;;;;;0.05;82.43;98366.13;107787;1308;22470;-38
2024/01/05 15:51:29;;;;;;;13.80;8.50;;;;;;;0.04;81.82;98368.22;107829;1308;22925;-37
2024/01/05 15:53:55;;;;;;;13.40;7.50;;;;;;;0.03;82.11;98360.14;107778;1289;22273;-36
2024/01/05 15:56:22;;;;;;;12.60;7.20;;;;;;;0.06;82.80;98356.79;107781;1308;22278;-38
2024/01/05 15:58:47;;;;;;;17.60;8.00;;;;;;;0.05;82.40;98358.52;107809;1308;22256;-36
2024/01/05 16:01:13;;;;;;;21.10;8.90;;;;;;;0.07;81.94;98358.13;107788;1292;22199;-36
2024/01/05 16:03:41;;;;;;;18.00;9.50;;;;;;;0.08;82.08;98355.86;107773;1308;22412;-38
2024/01/05 16:06:10;;;;;;;27.10;12.50;;;;;;;0.13;82.50;98356.92;107778;1307;22948;-38
2024/01/05 16:08:38;;;;;;;24.70;12.40;;;;;;;0.16;82.45;98355.46;107806;1302;22468;-37
2024/01/05 16:11:04;;;;;;;26.80;12.40;;;;;;;0.19;82.61;98353.98;107830;1308;22929;-36
2024/01/05 16:13:30;;;;;;;25.70;11.10;;;;;;;0.23;83.09;98353.71;107821;1295;22237;-37
2024/01/05 16:16:10;;;;;;;24.70;10.70;;;;;;;0.27;83.02;98354.98;107781;1308;22247;-37
2024/01/05 16:18:35;;;;;;;25.00;12.80;;;;;;;0.29;82.79;98363.55;107749;1308;22252;-38
2024/01/05 16:21:00;;;;;;;26.50;14.10;;;;;;;0.30;82.52;98369.91;107800;1300;22414;-38
2024/01/05 16:23:26;;;;;;;33.70;16.40;;;;;;;0.26;82.67;98378.13;107772;1300;22290;-36
2024/01/05 16:25:51;;;;;;;31.70;15.90;;;;;;;0.24;82.24;98364.38;107829;1286;23283;-37
2024/01/05 16:28:16;;;;;;;35.70;17.60;;;;;;;0.26;82.34;98349.33;107791;1289;22320;-36
2024/01/05 16:30:43;;;;;;;32.90;15.20;;;;;;;0.27;82.64;98340.66;107825;1308;22249;-39
2024/01/05 16:33:08;;;;;;;35.00;17.00;;;;;;;0.26;82.95;98338.96;107817;1286;22239;-38
2024/01/05 16:35:33;;;;;;;29.10;13.00;;;;;;;0.24;82.59;98344.36;107791;1285;22281;-38
2024/01/05 16:37:58;;;;;;;25.70;14.20;;;;;;;0.18;81.87;98352.64;107816;1308;23274;-37
2024/01/05 16:40:24;;;;;;;29.90;14.60;;;;;;;0.15;82.12;98357.22;107795;1305;22280;-37
2024/01/05 16:42:49;;;;;;;27.80;14.40;;;;;;;0.13;82.50;98358.29;107925;1307;22305;-39
2024/01/05 16:45:14;;;;;;;25.90;11.80;;;;;;;0.14;82.98;98359.15;107938;1294;23221;-37
2024/01/05 16:47:43;;;;;;;28.40;12.50;;;;;;;0.15;82.75;98360.48;107814;1305;22346;-37
2024/01/05 16:50:11;;;;;;;28.50;14.10;;;;;;;0.15;82.69;98362.05;107804;1308;22222;-38
2024/01/05 16:52:36;;;;;;;36.60;14.40;;;;;;;0.15;82.45;98364.12;107805;1288;22271;-38
2024/01/05 16:55:02;;;;;;;25.90;11.90;;;;;;;0.14;82.56;98370.02;107796;1308;22271;-37
2024/01/05 16:57:28;;;;;;;22.90;10.00;;;;;;;0.14;82.44;98374.46;107804;1288;22288;-37
2024/01/05 16:59:53;;;;;;;22.10;11.20;;;;;;;0.14;82.13;98373.42;107789;1308;22287;-38
2024/01/05 17:02:20;;;;;;;17.10;9.10;;;;;;;0.13;82.27;98375.37;107790;1308;23033;-38
2024/01/05 17:04:46;;;;;;;23.80;9.70;;;;;;;0.13;81.78;98381.56;107798;1288;22215;-37
2024/01/05 17:07:12;;;;;;;21.10;10.50;;;;;;;0.13;81.31;98381.23;107803;1308;22294;-37
2024/01/05 17:09:38;;;;;;;31.50;13.00;;;;;;;0.12;82.00;98385.55;107775;1308;22299;-37
2024/01/05 17:12:04;;;;;;;32.80;12.30;;;;;;;0.14;82.22;98378.61;107780;1308;22946;-38
2024/01/05 17:14:30;;;;;;;26.80;12.40;;;;;;;0.17;82.18;98377.16;107772;1308;22987;-39
2024/01/05 17:16:55;;;;;;;28.70;13.70;;;;;;;0.18;81.92;98371.94;107784;1308;22259;-37
2024/01/05 17:19:20;;;;;;;31.10;14.30;;;;;;;0.22;81.89;98371.15;107772;1292;22254;-38
2024/01/05 17:21:47;;;;;;;34.80;17.30;;;;;;;0.27;82.24;98370.83;107811;1288;23027;-39
2024/01/05 17:24:13;;;;;;;35.00;15.50;;;;;;;0.31;81.49;98373.83;107796;1308;22619;-37
2024/01/05 17:26:39;;;;;;;36.30;16.00;;;;;;;0.31;81.47;98369.33;107779;1302;22251;-38
2024/01/05 17:29:05;;;;;;;29.40;14.80;;;;;;;0.34;81.84;98373.91;107920;1307;22285;-38
2024/01/05 17:31:31;;;;;;;28.70;13.40;;;;;;;0.35;81.97;98375.62;107946;1298;22224;-39
2024/01/05 17:33:56;;;;;;;26.20;13.90;;;;;;;0.36;82.07;98377.82;107922;1307;22313;-37
2024/01/05 17:36:26;;;;;;;25.50;12.40;;;;;;;0.38;81.71;98379.33;107933;1289;22251;-38
2024/01/05 17:38:52;;;;;;;29.10;13.40;;;;;;;0.41;81.25;98378.89;107959;1298;22491;-39
2024/01/05 17:41:17;;;;;;;25.50;11.80;;;;;;;0.41;81.37;98372.67;107940;1307;22262;-38
2024/01/05 17:43:42;;;;;;;27.10;12.10;;;;;;;0.41;81.66;98376.16;107946;1307;22489;-36
2024/01/05 17:46:08;;;;;;;29.00;13.50;;;;;;;0.42;81.83;98382.30;107920;1289;22412;-36
2024/01/05 17:48:33;;;;;;;32.20;13.10;;;;;;;0.37;81.45;98390.91;107927;1307;22217;-38
2024/01/05 17:51:00;;;;;;;40.20;16.60;;;;;;;0.35;81.68;98392.68;107950;1298;22980;-38
2024/01/05 17:53:26;;;;;;;27.70;12.50;;;;;;;0.37;81.83;98395.05;107959;1307;22519;-39
2024/01/05 17:55:52;;;;;;;26.60;12.60;;;;;;;0.37;81.49;98395.39;107961;1289;23409;-37
2024/01/05 17:58:17;;;;;;;24.30;11.90;;;;;;;0.35;81.55;98391.30;107919;1307;22256;-36
2024/01/05 18:00:43;;;;;;;20.40;10.60;;;;;;;0.34;81.78;98388.59;107923;1288;22398;-38
2024/01/05 18:03:08;;;;;;;24.70;11.30;;;;;;;0.31;81.49;98387.29;107931;1307;22490;-37
2024/01/05 18:05:34;;;;;;;24.30;10.80;;;;;;;0.27;81.71;98391.86;107905;1292;22387;-37
2024/01/05 18:07:59;;;;;;;23.70;11.40;;;;;;;0.25;81.69;98389.16;107663;1307;22374;-44
2024/01/05 18:10:25;;;;;;;25.30;11.00;;;;;;;0.27;82.22;98388.27;107943;1307;22458;-36
2024/01/05 18:12:50;;;;;;;22.70;11.70;;;;;;;0.29;82.42;98390.79;107945;1307;22424;-37
2024/01/05 18:15:16;;;;;;;22.80;11.10;;;;;;;0.30;82.38;98393.16;107914;1307;22384;-39
2024/01/05 18:17:41;;;;;;;24.70;10.50;;;;;;;0.31;81.99;98396.40;107957;1298;22414;-37
2024/01/05 18:20:07;;;;;;;26.90;12.50;;;;;;;0.29;81.50;98396.47;107941;1299;22577;-38
2024/01/05 18:22:33;;;;;;;27.90;12.10;;;;;;;0.29;81.31;98393.54;107994;1298;22249;-37
2024/01/05 18:24:59;;;;;;;27.70;13.50;;;;;;;0.30;81.53;98386.09;108013;1307;22289;-37
2024/01/05 18:27:24;;;;;;;27.20;13.50;;;;;;;0.34;81.90;98382.54;107997;1307;22465;-38
2024/01/05 18:29:50;;;;;;;25.50;12.60;;;;;;;0.32;81.71;98381.55;107997;1289;22300;-36
2024/01/05 18:32:15;;;;;;;31.50;12.50;;;;;;;0.34;81.69;98378.91;108025;1286;23042;-36
2024/01/05 18:34:45;;;;;;;24.20;12.00;;;;;;;0.35;81.67;98379.05;108005;1307;22396;-37
2024/01/05 18:37:11;;;;;;;20.20;9.90;;;;;;;0.33;80.84;98382.91;107971;1307;22266;-38
2024/01/05 18:39:38;;;;;;;22.10;10.50;;;;;;;0.36;81.22;98382.65;108000;1285;22429;-38
2024/01/05 18:42:03;;;;;;;25.20;10.90;;;;;;;0.39;80.98;98383.61;108018;1307;23093;-37
2024/01/05 18:44:29;;;;;;;21.60;10.90;;;;;;;0.41;80.94;98384.25;108017;1307;22418;-38
2024/01/05 18:46:54;;;;;;;26.30;11.90;;;;;;;0.43;81.32;98383.14;107845;1291;22275;-40
2024/01/05 18:49:20;;;;;;;25.30;11.60;;;;;;;0.47;81.13;98372.52;107960;1307;22693;-38
2024/01/05 18:51:46;;;;;;;26.00;12.60;;;;;;;0.50;81.24;98373.81;108000;1307;22510;-38
2024/01/05 18:54:12;;;;;;;24.20;10.70;;;;;;;0.52;81.25;98371.69;108008;1307;22571;-40
2024/01/05 18:56:37;;;;;;;30.80;13.10;;;;;;;0.54;81.58;98368.86;108001;1307;22940;-38
2024/01/05 18:59:03;;;;;;;21.50;10.80;;;;;;;0.53;81.80;98367.34;107967;1307;22258;-38
2024/01/05 19:01:29;;;;;;;35.70;10.20;;;;;;;0.56;81.85;98367.42;107986;1307;22907;-40
2024/01/05 19:03:54;;;;;;;20.20;9.20;;;;;;;0.57;81.53;98370.83;107976;1307;22366;-40
2024/01/05 19:06:20;;;;;;;23.20;9.50;;;;;;;0.57;81.06;98373.06;107992;1289;22372;-39
2024/01/05 19:08:45;;;;;;;28.50;10.20;;;;;;;0.55;81.14;98374.86;107992;1289;22359;-39
2024/01/05 19:11:11;;;;;;;21.10;10.00;;;;;;;0.53;81.50;98372.01;108009;1306;22568;-39
2024/01/05 19:13:37;;;;;;;18.60;8.90;;;;;;;0.52;81.72;98368.92;108027;1306;22837;-38
2024/01/05 19:16:03;;;;;;;21.20;11.40;;;;;;;0.52;81.71;98370.46;108029;1306;22251;-38
2024/01/05 19:18:31;;;;;;;20.30;10.70;;;;;;;0.51;81.63;98374.45;108032;1306;22256;-39
2024/01/05 19:20:56;;;;;;;18.40;9.40;;;;;;;0.50;81.58;98374.48;108050;1306;22250;-38
2024/01/05 19:23:21;;;;;;;19.60;9.20;;;;;;;0.52;81.86;98377.71;108042;1306;22243;-39
2024/01/05 19:25:47;;;;;;;21.60;9.00;;;;;;;0.52;81.69;98380.98;108035;1306;22221;-39
2024/01/05 19:28:12;;;;;;;16.60;8.80;;;;;;;0.44;81.15;98385.87;108019;1306;22304;-37
2024/01/05 19:30:37;;;;;;;23.40;10.50;;;;;;;0.43;81.41;98392.45;108040;1306;22261;-38
2024/01/05 19:33:03;;;;;;;22.50;9.10;;;;;;;0.42;81.36;98384.20;108037;1306;23122;-40
2024/01/05 19:35:28;;;;;;;20.00;11.00;;;;;;;0.45;81.36;98381.35;108061;1306;22620;-38
2024/01/05 19:37:55;;;;;;;17.10;9.00;;;;;;;0.44;81.23;98377.94;108066;1306;22503;-38
2024/01/05 19:40:20;;;;;;;21.90;9.70;;;;;;;0.45;81.33;98369.65;108039;1306;22241;-39
2024/01/05 19:42:47;;;;;;;21.40;9.50;;;;;;;0.45;81.59;98365.84;108050;1306;22294;-39
2024/01/05 19:45:13;;;;;;;19.10;9.30;;;;;;;0.44;81.72;98360.36;108063;1306;22217;-40
2024/01/05 19:47:39;;;;;;;18.90;9.20;;;;;;;0.40;81.50;98354.95;108058;1306;22405;-39
2024/01/05 19:50:07;;;;;;;23.60;10.40;;;;;;;0.41;81.58;98348.55;108037;1306;22243;-39
2024/01/05 19:52:33;;;;;;;24.10;12.60;;;;;;;0.44;81.83;98343.80;108072;1306;22234;-40
2024/01/05 19:54:59;;;;;;;23.60;11.70;;;;;;;0.47;81.79;98336.48;108054;1306;22425;-39
2024/01/05 19:57:25;;;;;;;19.80;9.30;;;;;;;0.48;81.65;98328.84;108064;1306;22396;-40
2024/01/05 19:59:50;;;;;;;24.20;12.80;;;;;;;0.49;81.63;98324.17;108056;1306;22395;-39
2024/01/05 20:02:16;;;;;;;21.30;10.50;;;;;;;0.48;81.77;98324.89;108010;1306;22479;-39
2024/01/05 20:04:44;;;;;;;23.50;11.20;;;;;;;0.43;81.88;98326.92;108037;1306;22238;-38
2024/01/05 20:07:13;;;;;;;19.90;10.50;;;;;;;0.47;82.17;98325.61;108035;1306;22221;-38
2024/01/05 20:09:42;;;;;;;22.70;10.60;;;;;;;0.49;82.13;98325.36;108047;1306;22497;-39
2024/01/05 20:12:09;;;;;;;20.80;10.50;;;;;;;0.48;81.84;98324.19;108021;1306;22889;-40
2024/01/05 20:14:34;;;;;;;25.20;10.70;;;;;;;0.47;81.45;98317.48;107999;1306;22280;-40
2024/01/05 20:17:00;;;;;;;20.60;9.60;;;;;;;0.48;81.86;98311.61;108045;1306;23194;-39